KDTL

Details ICAO KDTL
Name DETROIT LAKES WETHING
Region United States
Timezone America/Chicago (UTC-5.0)
Plans Departing 12
Arriving 24
Stats Elevation 1,396 ft / 426 m (AMSL)
Location 46.825394° -95.886804°
Runways 2
Magnetic Variation 2.157° E
Sunrise 2018-05-22 10:42:27 UTC / 2018-05-22 05:42:27 Local
Sunset 2018-05-23 02:00:53 UTC / 2018-05-22 21:00:53 Local
Advertisement - Login to hide

Runways

ID Width Length Bearing (true) Bearing (mag) Surface Threshold Offset Overrun Length
13 75 ft / 23 m 4,496 ft / 1,370 m 139.98° 137.82° Asphalt 0 ft / 0 m 0 ft / 0 m
17 250 ft / 76 m 1,881 ft / 573 m 180.12° 177.96° Grass 0 ft / 0 m 0 ft / 0 m
31 75 ft / 23 m 4,496 ft / 1,370 m 319.99° 317.83° Asphalt 0 ft / 0 m 0 ft / 0 m
35 250 ft / 76 m 1,881 ft / 573 m 0.12° 357.96° Grass 0 ft / 0 m 0 ft / 0 m

Map

Weather


0- 5 10 15 20 25 30 35+ Temperature / ° C

Clouds and Precipitation
Forecast for 2018-05-23 06:00 UTC. Updated 44 minutes ago

Ground ~20,000 ft ~40,000 ft Winds

METAR

KDTL 230556Z AUTO 15005KT 10SM CLR 17/13 A3005 RMK AO2

TAF

Not found

Frequencies

Unicom 122.80 MHz CTAF/UNICOM
Warning: Do not use this data for real-world aviation or navigation. No guarantee of current accuracy is given.